Time;durP1;ratioP1;P1;durP2;ratioP2;P2;SDS_P1;SDS_P2;PMS_P1;PMS_P2;Temp;Humidity;BMP_temperature;BMP_pressure;BME280_temperature;BME280_humidity;BME280_pressure;Samples;Min_cycle;Max_cycle;Signal;HPM_P1;HPM_P2
2023/02/25 00:00:37;;;;;;;;;;;;;;;-142.75;100.00;77582.22;4952028;29;20332;-67
2023/02/25 00:03:02;;;;;;;;;;;;;;;-142.75;100.00;77576.31;4956120;28;19914;-66
2023/02/25 00:05:29;;;;;;;;;;;;;;;-142.75;100.00;77564.50;4970157;28;19914;-68
2023/02/25 00:07:54;;;;;;;;;;;;;;;-142.75;100.00;77562.53;4956358;28;20005;-67
2023/02/25 00:10:20;;;;;;;;;;;;;;;-142.75;100.00;77556.63;4956416;28;20002;-66
2023/02/25 00:12:45;;;;;;;;;;;;;;;-142.75;100.00;77546.78;4956274;29;19973;-67
2023/02/25 00:15:10;;;;;;;;;;;;;;;-142.75;100.00;77552.69;4956867;28;19918;-70
2023/02/25 00:17:38;;;;;;;;;;;;;;;-142.75;100.00;77552.69;4956915;28;19921;-67
2023/02/25 00:20:04;;;;;;;;;;;;;;;-142.75;100.00;77552.69;4956077;28;19949;-67
2023/02/25 00:22:29;;;;;;;;;;;;;;;-142.75;100.00;77546.78;4958240;28;19964;-67
2023/02/25 00:24:54;;;;;;;;;;;;;;;-142.75;100.00;77558.59;4950868;29;19915;-68
2023/02/25 00:27:20;;;;;;;;;;;;;;;-142.75;100.00;77552.69;4939847;29;19921;-67
2023/02/25 00:29:45;;;;;;;;;;;;;;;-142.75;100.00;77558.59;4956128;28;19961;-69
2023/02/25 00:32:11;;;;;;;;;;;;;;;-142.75;100.00;77566.47;4955593;29;19918;-67
2023/02/25 00:34:36;;;;;;;;;;;;;;;-142.75;100.00;77576.31;4955490;29;19946;-67
2023/02/25 00:37:01;;;;;;;;;;;;;;;-142.75;100.00;77562.53;4955952;29;19914;-66
2023/02/25 00:39:41;;;;;;;;;;;;;;;-142.75;100.00;77562.53;4955628;29;20070;-68
2023/02/25 00:42:10;;;;;;;;;;;;;;;-142.75;100.00;77578.28;4955324;29;19914;-67
2023/02/25 00:44:36;;;;;;;;;;;;;;;-142.75;100.00;77572.38;4945386;29;20021;-68
2023/02/25 00:47:02;;;;;;;;;;;;;;;-142.75;100.00;77570.41;4956110;29;20001;-67
2023/02/25 00:49:27;;;;;;;;;;;;;;;-142.75;100.00;77578.28;4955901;28;20311;-67
2023/02/25 00:51:54;;;;;;;;;;;;;;;-142.75;100.00;77586.16;4955497;29;20073;-67
2023/02/25 00:54:20;;;;;;;;;;;;;;;-142.75;100.00;77609.78;4955829;29;19918;-65
2023/02/25 00:56:45;;;;;;;;;;;;;;;-142.75;100.00;77617.66;4955867;29;19914;-66
2023/02/25 00:59:10;;;;;;;;;;;;;;;-142.75;100.00;77621.59;4955735;29;19922;-67
2023/02/25 01:01:36;;;;;;;;;;;;;;;-142.75;100.00;77627.50;4955955;29;19914;-68
2023/02/25 01:04:02;;;;;;;;;;;;;;;-142.75;100.00;77627.50;4955892;28;19922;-68
2023/02/25 01:06:27;;;;;;;;;;;;;;;-142.75;100.00;77649.16;4954808;29;20347;-70
2023/02/25 01:08:53;;;;;;;;;;;;;;;-142.75;100.00;77631.44;4955820;28;19972;-66
2023/02/25 01:11:26;;;;;;;;;;;;;;;-142.75;100.00;77637.34;4955463;28;20331;-66
2023/02/25 01:13:52;;;;;;;;;;;;;;;-142.75;100.00;77637.34;4955349;28;19915;-64
2023/02/25 01:16:18;;;;;;;;;;;;;;;-142.75;100.00;77633.41;4955495;29;19925;-64
2023/02/25 01:18:45;;;;;;;;;;;;;;;-142.75;100.00;77619.63;4952972;29;19921;-68
2023/02/25 01:21:16;;;;;;;;;;;;;;;-142.75;100.00;77605.84;4955178;29;19914;-64
2023/02/25 01:23:41;;;;;;;;;;;;;;;-142.75;100.00;77609.78;4954084;29;19914;-65
2023/02/25 01:26:06;;;;;;;;;;;;;;;-142.75;100.00;77601.91;4955491;29;19924;-66
2023/02/25 01:28:32;;;;;;;;;;;;;;;-142.75;100.00;77590.09;4955315;29;20063;-67
2023/02/25 01:30:57;;;;;;;;;;;;;;;-142.75;100.00;77603.88;4953904;29;20281;-65
2023/02/25 01:33:22;;;;;;;;;;;;;;;-142.75;100.00;77597.97;4955302;29;19914;-65
2023/02/25 01:35:47;;;;;;;;;;;;;;;-142.75;100.00;77590.09;4955167;29;19921;-66
2023/02/25 01:38:13;;;;;;;;;;;;;;;-142.75;100.00;77592.06;4955133;29;19920;-65
2023/02/25 01:40:38;;;;;;;;;;;;;;;-142.75;100.00;77594.03;4955018;28;20384;-65
2023/02/25 01:43:04;;;;;;;;;;;;;;;-142.75;100.00;77596.00;4955183;29;20004;-67
2023/02/25 01:45:29;;;;;;;;;;;;;;;-142.75;100.00;77592.06;4954985;28;20017;-66
2023/02/25 01:47:54;;;;;;;;;;;;;;;-142.75;100.00;77582.22;4955242;28;19962;-66
2023/02/25 01:50:21;;;;;;;;;;;;;;;-142.75;100.00;77582.22;4953315;29;19915;-65
2023/02/25 01:52:47;;;;;;;;;;;;;;;-142.75;100.00;77588.13;4953721;29;19930;-65
2023/02/25 01:55:13;;;;;;;;;;;;;;;-142.75;100.00;77580.25;4954959;28;20001;-65
2023/02/25 01:57:38;;;;;;;;;;;;;;;-142.75;100.00;77594.03;4954791;28;20009;-66
2023/02/25 02:00:11;;;;;;;;;;;;;;;-142.75;100.00;77574.34;4954619;29;19914;-66
2023/02/25 02:02:37;;;;;;;;;;;;;;;-142.75;100.00;77578.28;4954818;28;19922;-66
2023/02/25 02:05:03;;;;;;;;;;;;;;;-142.75;100.00;77588.13;4954780;28;19914;-67
2023/02/25 02:07:28;;;;;;;;;;;;;;;-142.75;100.00;77586.16;4954607;28;19944;-65
2023/02/25 02:09:57;;;;;;;;;;;;;;;-142.75;100.00;77586.16;4953247;29;19936;-65
2023/02/25 02:12:24;;;;;;;;;;;;;;;-142.75;100.00;77590.09;4954586;28;20009;-65
2023/02/25 02:14:49;;;;;;;;;;;;;;;-142.75;100.00;77592.06;4954570;28;19914;-65
2023/02/25 02:17:19;;;;;;;;;;;;;;;-142.75;100.00;77586.16;4954327;28;19918;-65
2023/02/25 02:19:48;;;;;;;;;;;;;;;-142.75;100.00;77586.16;4954244;28;19932;-65
2023/02/25 02:22:16;;;;;;;;;;;;;;;-142.75;100.00;77603.88;4954471;28;19921;-67
2023/02/25 02:24:53;;;;;;;;;;;;;;;-142.75;100.00;77617.66;4954478;29;19915;-68
2023/02/25 02:27:38;;;;;;;;;;;;;;;-142.75;100.00;77629.47;4953795;28;19914;-65
2023/02/25 02:30:25;;;;;;;;;;;;;;;-142.75;100.00;77631.44;4954184;29;19921;-65
2023/02/25 02:32:59;;;;;;;;;;;;;;;-142.75;100.00;77653.09;4954167;28;20298;-67
2023/02/25 02:35:30;;;;;;;;;;;;;;;-142.75;100.00;77657.03;4954094;29;19989;-66
2023/02/25 02:38:13;;;;;;;;;;;;;;;-142.75;100.00;77641.28;4953814;29;20434;-65
2023/02/25 02:40:46;;;;;;;;;;;;;;;-142.75;100.00;77645.22;4952915;29;19914;-66
2023/02/25 02:43:29;;;;;;;;;;;;;;;-142.75;100.00;77651.13;4954068;29;19914;-65
2023/02/25 02:46:12;;;;;;;;;;;;;;;-142.75;100.00;77645.22;4936538;29;20383;-67
2023/02/25 02:48:41;;;;;;;;;;;;;;;-142.75;100.00;77637.34;4953165;29;19949;-65
2023/02/25 02:51:09;;;;;;;;;;;;;;;-142.75;100.00;77641.28;4953709;29;19918;-65
2023/02/25 02:53:43;;;;;;;;;;;;;;;-142.75;100.00;77637.34;4953584;29;19918;-65
2023/02/25 02:56:11;;;;;;;;;;;;;;;-142.75;100.00;77641.28;4966962;28;19926;-66
2023/02/25 02:58:45;;;;;;;;;;;;;;;-142.75;100.00;77627.50;4953695;29;20443;-65
2023/02/25 03:01:12;;;;;;;;;;;;;;;-142.75;100.00;77633.41;4951119;29;19914;-66
2023/02/25 03:03:40;;;;;;;;;;;;;;;-142.75;100.00;77641.28;4936236;29;19918;-67
2023/02/25 03:06:10;;;;;;;;;;;;;;;-142.75;100.00;77664.91;4953356;29;19969;-65
2023/02/25 03:08:47;;;;;;;;;;;;;;;-142.75;100.00;77676.72;4953491;29;19929;-66
2023/02/25 03:11:13;;;;;;;;;;;;;;;-142.75;100.00;77668.84;4953417;28;20013;-66
2023/02/25 03:13:38;;;;;;;;;;;;;;;-142.75;100.00;77680.66;4953561;28;20380;-65
2023/02/25 03:16:05;;;;;;;;;;;;;;;-142.75;100.00;77680.66;4953470;28;19921;-64
2023/02/25 03:18:35;;;;;;;;;;;;;;;-142.75;100.00;77684.59;4953381;29;19915;-66
2023/02/25 03:21:02;;;;;;;;;;;;;;;-142.75;100.00;77678.69;4936265;29;19944;-65
2023/02/25 03:23:29;;;;;;;;;;;;;;;-142.75;100.00;77698.38;4936179;29;20377;-65
2023/02/25 03:25:59;;;;;;;;;;;;;;;-142.75;100.00;77688.53;4953248;29;19914;-65
2023/02/25 03:28:28;;;;;;;;;;;;;;;-142.75;100.00;77680.66;4953221;28;19953;-65
2023/02/25 03:31:05;;;;;;;;;;;;;;;-142.75;100.00;77684.59;4951814;29;19921;-65
2023/02/25 03:33:30;;;;;;;;;;;;;;;-142.75;100.00;77700.34;4953276;28;19953;-65
2023/02/25 03:35:55;;;;;;;;;;;;;;;-142.75;100.00;77702.31;4952179;29;19958;-65
2023/02/25 03:38:24;;;;;;;;;;;;;;;-142.75;100.00;77694.44;4938752;29;19914;-65
2023/02/25 03:40:51;;;;;;;;;;;;;;;-142.75;100.00;77704.28;4953038;29;19922;-65
2023/02/25 03:43:35;;;;;;;;;;;;;;;-142.75;100.00;77704.28;4953232;29;19940;-66
2023/02/25 03:46:01;;;;;;;;;;;;;;;-142.75;100.00;77696.41;4950428;29;20376;-67
2023/02/25 03:48:28;;;;;;;;;;;;;;;-142.75;100.00;77688.53;4953051;28;19973;-65
2023/02/25 03:50:58;;;;;;;;;;;;;;;-142.75;100.00;77678.69;4952759;28;19938;-65
2023/02/25 03:53:23;;;;;;;;;;;;;;;-142.75;100.00;77674.75;4952326;29;20009;-65
2023/02/25 03:55:49;;;;;;;;;;;;;;;-142.75;100.00;77674.75;4967388;28;20012;-65
2023/02/25 03:58:14;;;;;;;;;;;;;;;-142.75;100.00;77672.78;4952761;29;19964;-65
2023/02/25 04:00:41;;;;;;;;;;;;;;;-142.75;100.00;77676.72;4952575;29;19914;-66
2023/02/25 04:03:06;;;;;;;;;;;;;;;-142.75;100.00;77684.59;4952538;29;19914;-65
2023/02/25 04:05:31;;;;;;;;;;;;;;;-142.75;100.00;77678.69;4952410;29;19962;-66
2023/02/25 04:07:57;;;;;;;;;;;;;;;-142.75;100.00;77670.81;4952948;29;20376;-63
2023/02/25 04:10:23;;;;;;;;;;;;;;;-142.75;100.00;77678.69;4952609;29;19914;-65
2023/02/25 04:12:51;;;;;;;;;;;;;;;-142.75;100.00;77676.72;4935300;29;19926;-65
2023/02/25 04:15:17;;;;;;;;;;;;;;;-142.75;100.00;77664.91;4952603;29;20316;-65
2023/02/25 04:17:44;;;;;;;;;;;;;;;-142.75;100.00;77649.16;4935465;29;19921;-65
2023/02/25 04:20:09;;;;;;;;;;;;;;;-142.75;100.00;77660.97;4952167;29;20001;-65
2023/02/25 04:22:35;;;;;;;;;;;;;;;-142.75;100.00;77670.81;4952651;29;20442;-64
2023/02/25 04:25:00;;;;;;;;;;;;;;;-142.75;100.00;77674.75;4952439;29;19914;-65
2023/02/25 04:27:26;;;;;;;;;;;;;;;-142.75;100.00;77666.88;4951066;29;19921;-65
2023/02/25 04:29:51;;;;;;;;;;;;;;;-142.75;100.00;77672.78;4952265;28;20004;-65
2023/02/25 04:32:16;;;;;;;;;;;;;;;-142.75;100.00;77662.94;4952337;29;19918;-65
2023/02/25 04:34:41;;;;;;;;;;;;;;;-142.75;100.00;77672.78;4952531;29;19970;-65
2023/02/25 04:37:08;;;;;;;;;;;;;;;-142.75;100.00;77668.84;4952438;29;19918;-65
2023/02/25 04:39:34;;;;;;;;;;;;;;;-142.75;100.00;77680.66;4950252;29;19914;-65
2023/02/25 04:41:59;;;;;;;;;;;;;;;-142.75;100.00;77676.72;4952391;29;19936;-65
2023/02/25 04:44:24;;;;;;;;;;;;;;;-142.75;100.00;77698.38;4952545;29;20475;-65
2023/02/25 04:46:50;;;;;;;;;;;;;;;-142.75;100.00;77700.34;4952383;29;19921;-64
2023/02/25 04:49:16;;;;;;;;;;;;;;;-142.75;100.00;77700.34;4968087;28;19914;-65
2023/02/25 04:51:41;;;;;;;;;;;;;;;-142.75;100.00;77696.41;4955860;29;20294;-65
2023/02/25 04:54:07;;;;;;;;;;;;;;;-142.75;100.00;77692.47;4953586;29;19918;-65
2023/02/25 04:56:32;;;;;;;;;;;;;;;-142.75;100.00;77690.50;4955969;28;20307;-65
2023/02/25 04:58:57;;;;;;;;;;;;;;;-142.75;100.00;77706.25;4955828;29;19914;-65
2023/02/25 05:01:23;;;;;;;;;;;;;;;-142.75;100.00;77708.22;4953804;29;19922;-66
2023/02/25 05:03:48;;;;;;;;;;;;;;;-142.75;100.00;77704.28;4955631;29;19914;-65
2023/02/25 05:06:13;;;;;;;;;;;;;;;-142.75;100.00;77688.53;4955445;29;19914;-65
2023/02/25 05:08:39;;;;;;;;;;;;;;;-142.75;100.00;77706.25;4955311;29;20299;-65
2023/02/25 05:11:04;;;;;;;;;;;;;;;-142.75;100.00;77696.41;4955504;28;19914;-65
2023/02/25 05:13:29;;;;;;;;;;;;;;;-142.75;100.00;77696.41;4955451;29;19921;-67
2023/02/25 05:16:04;;;;;;;;;;;;;;;-142.75;100.00;77696.41;4955634;29;19925;-65
2023/02/25 05:18:29;;;;;;;;;;;;;;;-142.75;100.00;77700.34;4954543;29;19958;-65
2023/02/25 05:20:54;;;;;;;;;;;;;;;-142.75;100.00;77712.16;4955153;29;19944;-65
2023/02/25 05:23:19;;;;;;;;;;;;;;;-142.75;100.00;77710.19;4955435;29;19998;-66
2023/02/25 05:25:45;;;;;;;;;;;;;;;-142.75;100.00;77712.16;4955384;29;19914;-64
2023/02/25 05:28:10;;;;;;;;;;;;;;;-142.75;100.00;77718.06;4955250;29;19993;-66
2023/02/25 05:30:36;;;;;;;;;;;;;;;-142.75;100.00;77710.19;4955073;28;19922;-65
2023/02/25 05:33:01;;;;;;;;;;;;;;;-142.75;100.00;77727.94;4955065;28;20360;-65
2023/02/25 05:35:27;;;;;;;;;;;;;;;-142.75;100.00;77729.88;4955156;29;20005;-65
2023/02/25 05:37:53;;;;;;;;;;;;;;;-142.75;100.00;77722.00;4955130;29;20000;-65
2023/02/25 05:40:18;;;;;;;;;;;;;;;-142.75;100.00;77714.13;4954957;28;20328;-65
2023/02/25 05:42:48;;;;;;;;;;;;;;;-142.75;100.00;77718.06;4954660;28;19914;-66
2023/02/25 05:45:13;;;;;;;;;;;;;;;-142.75;100.00;77716.09;4953825;29;20012;-66
2023/02/25 05:47:38;;;;;;;;;;;;;;;-142.75;100.00;77735.81;4954914;28;20001;-65
2023/02/25 05:50:04;;;;;;;;;;;;;;;-142.75;100.00;77731.88;4954691;29;19976;-66
2023/02/25 05:52:29;;;;;;;;;;;;;;;-142.75;100.00;77745.66;4953703;29;19918;-67
2023/02/25 05:54:54;;;;;;;;;;;;;;;-142.75;100.00;77741.72;4954892;29;20396;-65
2023/02/25 05:57:22;;;;;;;;;;;;;;;-142.75;100.00;77741.72;4954623;29;19969;-66
2023/02/25 05:59:47;;;;;;;;;;;;;;;-142.75;100.00;77737.78;4944959;28;20472;-67
2023/02/25 06:02:13;;;;;;;;;;;;;;;-142.75;100.00;77735.81;4954455;29;20054;-65
2023/02/25 06:04:38;;;;;;;;;;;;;;;-142.75;100.00;77735.81;4954726;29;19937;-67
2023/02/25 06:07:03;;;;;;;;;;;;;;;-142.75;100.00;77731.88;4954341;29;20316;-65
2023/02/25 06:09:28;;;;;;;;;;;;;;;-142.75;100.00;77729.88;4954373;29;20367;-67
2023/02/25 06:11:53;;;;;;;;;;;;;;;-142.75;100.00;77725.97;4952604;29;19926;-65
2023/02/25 06:14:19;;;;;;;;;;;;;;;-142.75;100.00;77716.09;4954350;29;19920;-65
2023/02/25 06:16:44;;;;;;;;;;;;;;;-142.75;100.00;77739.75;4954399;29;20364;-65
2023/02/25 06:19:09;;;;;;;;;;;;;;;-142.75;100.00;77731.88;4954134;29;19921;-63
2023/02/25 06:21:35;;;;;;;;;;;;;;;-142.75;100.00;77743.69;4954411;28;19914;-68
2023/02/25 06:24:01;;;;;;;;;;;;;;;-142.75;100.00;77739.75;4954591;29;20516;-65
2023/02/25 06:26:26;;;;;;;;;;;;;;;-142.75;100.00;77747.63;4953806;28;19997;-65
2023/02/25 06:28:51;;;;;;;;;;;;;;;-142.75;100.00;77743.69;4947262;29;20017;-68
2023/02/25 06:31:17;;;;;;;;;;;;;;;-142.75;100.00;77743.69;4936378;29;19922;-65
2023/02/25 06:33:44;;;;;;;;;;;;;;;-142.75;100.00;77755.50;4953520;29;19922;-65
2023/02/25 06:36:09;;;;;;;;;;;;;;;-142.75;100.00;77763.38;4954191;29;19961;-65
2023/02/25 06:38:34;;;;;;;;;;;;;;;-142.75;100.00;77755.50;4953833;29;20070;-65
2023/02/25 06:41:03;;;;;;;;;;;;;;;-142.75;100.00;77767.31;4953906;29;19914;-65
2023/02/25 06:43:29;;;;;;;;;;;;;;;-142.75;100.00;77765.34;4952362;29;20379;-65
2023/02/25 06:45:54;;;;;;;;;;;;;;;-142.75;100.00;77779.13;4953828;29;19914;-66
2023/02/25 06:48:19;;;;;;;;;;;;;;;-142.75;100.00;77775.19;4953608;29;19929;-66
2023/02/25 06:50:44;;;;;;;;;;;;;;;-142.75;100.00;77785.03;4953745;29;19921;-65
2023/02/25 06:53:09;;;;;;;;;;;;;;;-142.75;100.00;77771.25;4953818;29;19918;-65
2023/02/25 06:55:37;;;;;;;;;;;;;;;-142.75;100.00;77765.34;4953729;29;19921;-65
2023/02/25 06:58:02;;;;;;;;;;;;;;;-142.75;100.00;77765.34;4953712;28;19915;-65
2023/02/25 07:00:27;;;;;;;;;;;;;;;-142.75;100.00;77749.59;4953288;29;19925;-66
2023/02/25 07:02:52;;;;;;;;;;;;;;;-142.75;100.00;77749.59;4953638;29;19920;-65
2023/02/25 07:05:18;;;;;;;;;;;;;;;-142.75;100.00;77759.44;4952263;29;20001;-65
2023/02/25 07:07:43;;;;;;;;;;;;;;;-142.75;100.00;77749.59;4954068;29;19915;-65
2023/02/25 07:10:10;;;;;;;;;;;;;;;-142.75;100.00;77749.59;4953265;29;19918;-65
2023/02/25 07:12:35;;;;;;;;;;;;;;;-142.75;100.00;77749.59;4946659;28;19918;-65
2023/02/25 07:15:00;;;;;;;;;;;;;;;-142.75;100.00;77763.38;4953428;29;20057;-65
2023/02/25 07:17:25;;;;;;;;;;;;;;;-142.75;100.00;77771.25;4953201;29;20017;-65
2023/02/25 07:19:51;;;;;;;;;;;;;;;-142.75;100.00;77769.28;4953275;29;19918;-65
2023/02/25 07:22:17;;;;;;;;;;;;;;;-142.75;100.00;77747.63;4953477;29;19918;-65
2023/02/25 07:24:42;;;;;;;;;;;;;;;-142.75;100.00;77725.97;4936243;29;20311;-65
2023/02/25 07:27:08;;;;;;;;;;;;;;;-142.75;100.00;77710.19;4935923;29;20065;-65
2023/02/25 07:29:33;;;;;;;;;;;;;;;-142.75;100.00;77704.28;4953030;29;20009;-66
2023/02/25 07:31:59;;;;;;;;;;;;;;;-142.75;100.00;77692.47;4951334;29;19925;-66
2023/02/25 07:34:24;;;;;;;;;;;;;;;-142.75;100.00;77682.63;4953263;29;20403;-65
2023/02/25 07:36:49;;;;;;;;;;;;;;;-142.75;100.00;77714.13;4953121;29;19914;-65
2023/02/25 07:39:14;;;;;;;;;;;;;;;-142.75;100.00;77684.59;4952912;29;19921;-65
2023/02/25 07:41:40;;;;;;;;;;;;;;;-142.75;100.00;77682.63;4951855;29;19914;-65
2023/02/25 07:44:06;;;;;;;;;;;;;;;-142.75;100.00;77680.66;4953031;28;20391;-65
2023/02/25 07:46:31;;;;;;;;;;;;;;;-142.75;100.00;77702.31;4941960;29;19921;-64
2023/02/25 07:48:57;;;;;;;;;;;;;;;-142.75;100.00;77688.53;4952722;29;20439;-65
2023/02/25 07:51:22;;;;;;;;;;;;;;;-142.75;100.00;77645.22;4967533;28;19918;-66
2023/02/25 07:53:49;;;;;;;;;;;;;;;-142.75;100.00;77621.59;4952980;29;19930;-65
2023/02/25 07:56:14;;;;;;;;;;;;;;;-142.75;100.00;77615.69;4952882;29;19914;-65
2023/02/25 07:58:40;;;;;;;;;;;;;;;-142.75;100.00;77590.09;4951429;29;20796;-65
2023/02/25 08:01:08;;;;;;;;;;;;;;;-142.75;100.00;77576.31;4952714;28;19914;-65
2023/02/25 08:03:33;;;;;;;;;;;;;;;-142.75;100.00;77554.66;4952786;29;19915;-66
2023/02/25 08:06:01;;;;;;;;;;;;;;;-142.75;100.00;77544.81;4951551;29;19921;-65
2023/02/25 08:08:27;;;;;;;;;;;;;;;-142.75;100.00;77529.06;4952694;28;19915;-65
2023/02/25 08:10:52;;;;;;;;;;;;;;;-142.75;100.00;77509.38;4951420;29;19914;-65
2023/02/25 08:13:18;;;;;;;;;;;;;;;-142.75;100.00;77483.78;4952723;29;20319;-66
2023/02/25 08:15:43;;;;;;;;;;;;;;;-142.75;100.00;77462.13;4952714;28;19999;-65
2023/02/25 08:18:09;;;;;;;;;;;;;;;-142.75;100.00;77458.16;4952763;28;19922;-63
2023/02/25 08:20:35;;;;;;;;;;;;;;;-142.75;100.00;77434.53;4952645;28;19922;-63
2023/02/25 08:23:00;;;;;;;;;;;;;;;-142.75;100.00;77406.97;4952869;28;19977;-64
2023/02/25 08:25:26;;;;;;;;;;;;;;;-142.75;100.00;77424.69;4955122;29;19914;-63
2023/02/25 08:27:51;;;;;;;;;;;;;;;-142.75;100.00;77393.19;4953936;29;19921;-62
2023/02/25 08:30:17;;;;;;;;;;;;;;;-142.75;100.00;77414.84;4954144;28;19915;-67
2023/02/25 08:32:42;;;;;;;;;;;;;;;-142.75;100.00;77385.31;4961880;28;19926;-68
2023/02/25 08:35:08;;;;;;;;;;;;;;;-142.75;100.00;77326.25;4940160;29;19914;-67
2023/02/25 08:37:33;;;;;;;;;;;;;;;-142.75;100.00;77312.47;4955120;29;19914;-65
2023/02/25 08:39:58;;;;;;;;;;;;;;;-142.75;100.00;77338.06;4955315;29;19962;-66
2023/02/25 08:42:24;;;;;;;;;;;;;;;-142.75;100.00;77310.50;4955885;29;19914;-67
2023/02/25 08:44:49;;;;;;;;;;;;;;;-142.75;100.00;77235.69;4946434;29;19921;-67
2023/02/25 08:47:15;;;;;;;;;;;;;;;-142.75;100.00;77178.59;4955335;29;19961;-65
2023/02/25 08:49:40;;;;;;;;;;;;;;;-142.75;100.00;77164.81;4955949;29;19937;-66
2023/02/25 08:52:07;;;;;;;;;;;;;;;-142.75;100.00;77210.09;4952025;29;19919;-66
2023/02/25 08:54:32;;;;;;;;;;;;;;;-142.75;100.00;77243.56;4951132;29;19915;-67
2023/02/25 08:56:59;;;;;;;;;;;;;;;-142.75;100.00;77239.63;4953974;29;19926;-67
2023/02/25 08:59:25;;;;;;;;;;;;;;;-142.75;100.00;77216.00;4955234;29;19915;-66
2023/02/25 09:01:52;;;;;;;;;;;;;;;-142.75;100.00;77253.41;4954645;29;19918;-67
2023/02/25 09:04:20;;;;;;;;;;;;;;;-142.75;100.00;77271.13;4954567;29;19924;-67
2023/02/25 09:06:48;;;;;;;;;;;;;;;-142.75;100.00;77286.88;4953383;29;19914;-66
2023/02/25 09:09:14;;;;;;;;;;;;;;;-142.75;100.00;77294.75;4964463;28;20298;-67
2023/02/25 09:11:40;;;;;;;;;;;;;;;-142.75;100.00;77318.38;4953567;29;20400;-67
2023/02/25 09:14:06;;;;;;;;;;;;;;;-142.75;100.00;77328.22;4955611;29;20380;-67
2023/02/25 09:16:31;;;;;;;;;;;;;;;-142.75;100.00;77401.06;4953459;29;19922;-66
2023/02/25 09:18:56;;;;;;;;;;;;;;;-142.75;100.00;77410.91;4955591;28;19914;-67
2023/02/25 09:21:22;;;;;;;;;;;;;;;-142.75;100.00;77432.56;4955492;29;19961;-67
2023/02/25 09:23:50;;;;;;;;;;;;;;;-142.75;100.00;77448.34;4955398;28;20001;-67
2023/02/25 09:26:15;;;;;;;;;;;;;;;-142.75;100.00;77452.25;4955453;28;20529;-67
2023/02/25 09:28:40;;;;;;;;;;;;;;;-142.75;100.00;77460.13;4954028;29;19921;-68
2023/02/25 09:31:05;;;;;;;;;;;;;;;-142.75;100.00;77483.78;4955273;29;20009;-67
2023/02/25 09:33:31;;;;;;;;;;;;;;;-142.75;100.00;77548.75;4955419;29;19968;-67
2023/02/25 09:36:07;;;;;;;;;;;;;;;-142.75;100.00;77501.50;4954074;28;19914;-67
2023/02/25 09:38:32;;;;;;;;;;;;;;;-142.75;100.00;77399.09;4953818;29;19921;-68
2023/02/25 09:40:57;;;;;;;;;;;;;;;-142.75;100.00;77349.88;4954897;28;19918;-67
2023/02/25 09:43:27;;;;;;;;;;;;;;;-142.75;100.00;77416.81;4969901;28;19914;-66
2023/02/25 09:45:53;;;;;;;;;;;;;;;-142.75;100.00;77458.16;4953584;29;19921;-67
2023/02/25 09:48:21;;;;;;;;;;;;;;;-142.75;100.00;77538.91;4954843;29;19941;-67
2023/02/25 09:50:50;;;;;;;;;;;;;;;-142.75;100.00;77538.91;4954907;29;19965;-67
2023/02/25 09:53:26;;;;;;;;;;;;;;;-142.75;100.00;77542.84;4954909;29;19919;-68
2023/02/25 09:55:52;;;;;;;;;;;;;;;-142.75;100.00;77578.28;4954849;29;20342;-65
2023/02/25 09:58:25;;;;;;;;;;;;;;;-142.75;100.00;77554.66;4952493;29;19934;-65
2023/02/25 10:01:13;;;;;;;;;;;;;;;-142.75;100.00;77538.91;4954341;29;20449;-64
2023/02/25 10:03:55;;;;;;;;;;;;;;;-142.75;100.00;77540.88;4953548;29;19918;-65
2023/02/25 10:06:24;;;;;;;;;;;;;;;-142.75;100.00;77460.13;4953445;29;19914;-65
2023/02/25 10:08:55;;;;;;;;;;;;;;;-142.75;100.00;77377.44;4954647;28;20296;-65
2023/02/25 10:11:23;;;;;;;;;;;;;;;-142.75;100.00;77326.25;4954450;29;19925;-65
2023/02/25 10:13:56;;;;;;;;;;;;;;;-142.75;100.00;77334.13;4954385;29;19922;-65
2023/02/25 10:16:24;;;;;;;;;;;;;;;-142.75;100.00;77231.75;4954431;28;20005;-65
2023/02/25 10:19:05;;;;;;;;;;;;;;;-142.75;100.00;77196.31;4954535;29;19954;-65
2023/02/25 10:22:00;;;;;;;;;;;;;;;-142.75;100.00;77202.22;4954151;29;19914;-66
2023/02/25 10:24:33;;;;;;;;;;;;;;;-142.75;100.00;77107.72;4918752;29;19943;-65
2023/02/25 10:27:03;;;;;;;;;;;;;;;-142.75;98.61;77088.03;4954301;29;20029;-65
2023/02/25 10:29:32;;;;;;;;;;;;;;;-142.75;94.83;77058.50;4954014;29;19914;-66
2023/02/25 10:31:58;;;;;;;;;;;;;;;-142.75;92.21;77015.19;4954004;29;19922;-68
2023/02/25 10:34:25;;;;;;;;;;;;;;;-142.75;91.55;77019.13;4954364;29;19914;-67
2023/02/25 10:36:53;;;;;;;;;;;;;;;-142.75;93.24;77099.84;4950935;29;19915;-67
2023/02/25 10:39:19;;;;;;;;;;;;;;;-142.75;95.32;77019.13;4953453;29;20308;-68
2023/02/25 10:41:44;;;;;;;;;;;;;;;-142.75;91.16;77001.41;4952505;29;19921;-68
2023/02/25 10:44:11;;;;;;;;;;;;;;;-142.75;91.05;77064.41;4953851;29;20311;-67
2023/02/25 10:46:42;;;;;;;;;;;;;;;-142.75;91.31;77090.00;4953183;28;19915;-67
2023/02/25 10:49:15;;;;;;;;;;;;;;;-142.75;89.36;77101.81;4952671;29;19922;-67
2023/02/25 10:52:01;;;;;;;;;;;;;;;-142.75;90.34;77217.97;4952749;29;19957;-67
2023/02/25 10:54:28;;;;;;;;;;;;;;;-142.75;93.33;77273.09;4953502;29;20299;-67
2023/02/25 10:56:53;;;;;;;;;;;;;;;-142.75;99.76;77428.63;4953853;29;19918;-67
2023/02/25 10:59:38;;;;;;;;;;;;;;;-142.75;100.00;77578.28;4953584;29;19921;-68
2023/02/25 11:02:24;;;;;;;;;;;;;;;-142.75;100.00;77538.91;4951911;29;19953;-67
2023/02/25 11:04:51;;;;;;;;;;;;;;;-142.75;100.00;77597.97;4951662;29;19921;-67
2023/02/25 11:07:26;;;;;;;;;;;;;;;-142.75;100.00;77637.34;4936805;29;19914;-67
2023/02/25 11:10:05;;;;;;;;;;;;;;;-142.75;100.00;77635.38;4967025;28;19914;-67
2023/02/25 11:12:38;;;;;;;;;;;;;;;-142.75;100.00;77615.69;4952513;29;19922;-67
2023/02/25 11:15:35;;;;;;;;;;;;;;;-142.75;100.00;77601.91;4942369;29;20387;-67
2023/02/25 11:18:04;;;;;;;;;;;;;;;-142.75;100.00;77452.25;4928753;29;19961;-67
2023/02/25 11:20:31;;;;;;;;;;;;;;;-142.75;100.00;77302.63;4951318;28;19914;-67
2023/02/25 11:22:57;;;;;;;;;;;;;;;-142.75;100.00;77194.34;4950603;29;19921;-67
2023/02/25 11:25:31;;;;;;;;;;;;;;;-142.75;100.00;77105.75;4952364;29;19943;-68
2023/02/25 11:27:57;;;;;;;;;;;;;;;-142.75;100.00;77058.50;4953473;28;19914;-69
2023/02/25 11:30:36;;;;;;;;;;;;;;;-142.75;92.02;77023.06;4952914;28;19940;-67
2023/02/25 11:33:03;;;;;;;;;;;;;;;-142.75;89.69;76969.91;4952537;28;19922;-67
2023/02/25 11:35:34;;;;;;;;;;;;;;;-142.75;88.05;77062.44;4950606;29;19914;-66
2023/02/25 11:38:13;;;;;;;;;;;;;;;-142.75;87.97;77082.13;4949450;29;20375;-67
2023/02/25 11:40:43;;;;;;;;;;;;;;;-142.75;89.42;77216.00;4948616;29;20423;-67
2023/02/25 11:43:16;;;;;;;;;;;;;;;-142.75;86.52;77275.06;4952533;29;20005;-68
2023/02/25 11:46:05;;;;;;;;;;;;;;;-142.75;87.07;77336.09;4943769;29;19918;-66
2023/02/25 11:48:49;;;;;;;;;;;;;;;-142.75;88.44;77345.94;4947369;29;19914;-67
2023/02/25 11:51:34;;;;;;;;;;;;;;;-142.75;92.51;77438.47;4952022;29;20391;-68
2023/02/25 11:54:14;;;;;;;;;;;;;;;-142.75;94.57;77483.78;4952380;29;20383;-67
2023/02/25 11:56:47;;;;;;;;;;;;;;;-142.75;100.00;77562.53;4953010;29;19914;-68
2023/02/25 11:59:15;;;;;;;;;;;;;;;-142.75;100.00;77643.25;4934587;29;19921;-66
2023/02/25 12:01:59;;;;;;;;;;;;;;;-142.75;100.00;77743.69;4951880;29;20273;-67
2023/02/25 12:04:43;;;;;;;;;;;;;;;-142.75;100.00;77796.84;4952819;29;19914;-65
2023/02/25 12:07:24;;;;;;;;;;;;;;;-142.75;100.00;77798.81;4952333;29;20388;-66
2023/02/25 12:10:07;;;;;;;;;;;;;;;-142.75;100.00;77787.00;4952661;29;19914;-67
2023/02/25 12:12:40;;;;;;;;;;;;;;;-142.75;100.00;77788.97;4952727;29;20299;-68
2023/02/25 12:15:29;;;;;;;;;;;;;;;-142.75;100.00;77796.84;4952745;29;19921;-67
2023/02/25 12:17:57;;;;;;;;;;;;;;;-142.75;100.00;77771.25;4952143;29;19914;-67
2023/02/25 12:20:41;;;;;;;;;;;;;;;-142.75;100.00;77779.13;4967275;28;20403;-68
2023/02/25 12:23:22;;;;;;;;;;;;;;;-142.75;100.00;77761.41;4952638;29;19914;-67